sensor_id;sensor_type;location;lat;lon;timestamp;temperature;humidity
32895;DHT22;19251;49.484;8.260;2023-05-24T00:04:27;15.40;19.10
32895;DHT22;19251;49.484;8.260;2023-05-24T00:09:31;15.30;19.20
32895;DHT22;19251;49.484;8.260;2023-05-24T00:19:36;15.20;19.20
32895;DHT22;19251;49.484;8.260;2023-05-24T00:24:39;15.20;19.40
32895;DHT22;19251;49.484;8.260;2023-05-24T00:29:41;15.20;19.50
32895;DHT22;19251;49.484;8.260;2023-05-24T00:34:43;15.10;19.40
32895;DHT22;19251;49.484;8.260;2023-05-24T00:39:45;15.10;19.50
32895;DHT22;19251;49.484;8.260;2023-05-24T00:44:47;15.00;19.50
32895;DHT22;19251;49.484;8.260;2023-05-24T00:49:50;15.00;19.50
32895;DHT22;19251;49.484;8.260;2023-05-24T00:54:52;14.90;19.60
32895;DHT22;19251;49.484;8.260;2023-05-24T00:59:54;14.80;19.70
32895;DHT22;19251;49.484;8.260;2023-05-24T01:04:57;14.70;19.70
32895;DHT22;19251;49.484;8.260;2023-05-24T01:15:27;14.50;19.80
32895;DHT22;19251;49.484;8.260;2023-05-24T01:20:32;14.50;20.00
32895;DHT22;19251;49.484;8.260;2023-05-24T01:25:38;14.40;20.10
32895;DHT22;19251;49.484;8.260;2023-05-24T01:30:42;14.30;20.10
32895;DHT22;19251;49.484;8.260;2023-05-24T01:40:49;14.30;20.20
32895;DHT22;19251;49.484;8.260;2023-05-24T01:46:11;14.20;20.20
32895;DHT22;19251;49.484;8.260;2023-05-24T01:51:17;14.30;20.30
32895;DHT22;19251;49.484;8.260;2023-05-24T01:56:20;14.30;20.30
32895;DHT22;19251;49.484;8.260;2023-05-24T02:01:22;14.30;20.20
32895;DHT22;19251;49.484;8.260;2023-05-24T02:06:26;14.30;20.30
32895;DHT22;19251;49.484;8.260;2023-05-24T02:11:29;14.30;20.30
32895;DHT22;19251;49.484;8.260;2023-05-24T02:16:31;14.40;20.30
32895;DHT22;19251;49.484;8.260;2023-05-24T02:21:34;14.40;20.30
32895;DHT22;19251;49.484;8.260;2023-05-24T02:26:37;14.40;20.30
32895;DHT22;19251;49.484;8.260;2023-05-24T02:31:39;14.50;20.30
32895;DHT22;19251;49.484;8.260;2023-05-24T02:36:42;14.50;20.30
32895;DHT22;19251;49.484;8.260;2023-05-24T02:41:44;14.60;20.40
32895;DHT22;19251;49.484;8.260;2023-05-24T02:46:46;14.60;20.20
32895;DHT22;19251;49.484;8.260;2023-05-24T02:51:48;14.60;20.20
32895;DHT22;19251;49.484;8.260;2023-05-24T02:56:50;14.60;20.10
32895;DHT22;19251;49.484;8.260;2023-05-24T03:01:53;14.60;20.10
32895;DHT22;19251;49.484;8.260;2023-05-24T03:06:58;14.60;20.10
32895;DHT22;19251;49.484;8.260;2023-05-24T03:12:01;14.70;20.20
32895;DHT22;19251;49.484;8.260;2023-05-24T03:17:04;14.60;20.10
32895;DHT22;19251;49.484;8.260;2023-05-24T03:22:07;14.60;20.00
32895;DHT22;19251;49.484;8.260;2023-05-24T03:27:09;14.60;20.00
32895;DHT22;19251;49.484;8.260;2023-05-24T03:32:11;14.50;20.00
32895;DHT22;19251;49.484;8.260;2023-05-24T03:37:14;14.50;20.00
32895;DHT22;19251;49.484;8.260;2023-05-24T03:42:17;14.50;20.10
32895;DHT22;19251;49.484;8.260;2023-05-24T03:47:19;14.40;19.90
32895;DHT22;19251;49.484;8.260;2023-05-24T03:52:22;14.50;19.90
32895;DHT22;19251;49.484;8.260;2023-05-24T03:57:24;14.50;19.80
32895;DHT22;19251;49.484;8.260;2023-05-24T04:02:26;14.50;19.80
32895;DHT22;19251;49.484;8.260;2023-05-24T04:07:28;14.40;19.80
32895;DHT22;19251;49.484;8.260;2023-05-24T04:12:35;14.40;19.80
32895;DHT22;19251;49.484;8.260;2023-05-24T04:17:41;14.40;19.70
32895;DHT22;19251;49.484;8.260;2023-05-24T04:22:45;14.40;19.60
32895;DHT22;19251;49.484;8.260;2023-05-24T04:32:49;14.40;19.60
32895;DHT22;19251;49.484;8.260;2023-05-24T04:37:52;14.40;19.50
32895;DHT22;19251;49.484;8.260;2023-05-24T04:42:54;14.30;19.40
32895;DHT22;19251;49.484;8.260;2023-05-24T04:47:56;14.30;19.30
32895;DHT22;19251;49.484;8.260;2023-05-24T04:52:59;14.30;19.30
32895;DHT22;19251;49.484;8.260;2023-05-24T04:58:01;14.20;19.10
32895;DHT22;19251;49.484;8.260;2023-05-24T05:03:03;14.20;19.10
32895;DHT22;19251;49.484;8.260;2023-05-24T05:08:05;14.20;19.20
32895;DHT22;19251;49.484;8.260;2023-05-24T05:13:07;14.20;19.30
32895;DHT22;19251;49.484;8.260;2023-05-24T05:18:09;14.20;19.40
32895;DHT22;19251;49.484;8.260;2023-05-24T05:23:12;14.30;19.40
32895;DHT22;19251;49.484;8.260;2023-05-24T05:33:16;14.40;19.30
32895;DHT22;19251;49.484;8.260;2023-05-24T05:38:18;14.50;19.30
32895;DHT22;19251;49.484;8.260;2023-05-24T05:43:20;14.50;18.80
32895;DHT22;19251;49.484;8.260;2023-05-24T05:48:22;14.50;18.80
32895;DHT22;19251;49.484;8.260;2023-05-24T05:53:25;14.60;18.80
32895;DHT22;19251;49.484;8.260;2023-05-24T05:58:27;14.60;18.40
32895;DHT22;19251;49.484;8.260;2023-05-24T06:08:31;15.00;18.50
32895;DHT22;19251;49.484;8.260;2023-05-24T06:13:36;15.00;18.20
32895;DHT22;19251;49.484;8.260;2023-05-24T06:18:38;15.20;18.30
32895;DHT22;19251;49.484;8.260;2023-05-24T06:23:51;15.40;18.00
32895;DHT22;19251;49.484;8.260;2023-05-24T06:28:53;15.50;17.40
32895;DHT22;19251;49.484;8.260;2023-05-24T06:33:55;15.80;17.60
32895;DHT22;19251;49.484;8.260;2023-05-24T06:49:08;16.20;16.20
32895;DHT22;19251;49.484;8.260;2023-05-24T06:54:10;16.40;16.10
32895;DHT22;19251;49.484;8.260;2023-05-24T06:59:12;16.60;15.70
32895;DHT22;19251;49.484;8.260;2023-05-24T07:04:14;16.70;15.10
32895;DHT22;19251;49.484;8.260;2023-05-24T07:09:19;16.80;14.30
32895;DHT22;19251;49.484;8.260;2023-05-24T07:14:21;17.00;13.90
32895;DHT22;19251;49.484;8.260;2023-05-24T07:24:30;17.20;13.70
32895;DHT22;19251;49.484;8.260;2023-05-24T07:29:32;17.30;13.40
32895;DHT22;19251;49.484;8.260;2023-05-24T07:34:34;17.30;13.00
32895;DHT22;19251;49.484;8.260;2023-05-24T07:39:36;17.40;12.50
32895;DHT22;19251;49.484;8.260;2023-05-24T07:44:39;17.40;12.40
32895;DHT22;19251;49.484;8.260;2023-05-24T07:49:42;17.40;12.50
32895;DHT22;19251;49.484;8.260;2023-05-24T07:54:44;17.60;12.00
32895;DHT22;19251;49.484;8.260;2023-05-24T08:04:48;17.70;10.50
32895;DHT22;19251;49.484;8.260;2023-05-24T08:09:50;17.80;10.40
32895;DHT22;19251;49.484;8.260;2023-05-24T08:14:52;17.80;10.20
32895;DHT22;19251;49.484;8.260;2023-05-24T08:24:57;18.10;10.20
32895;DHT22;19251;49.484;8.260;2023-05-24T08:30:00;18.20;9.60
32895;DHT22;19251;49.484;8.260;2023-05-24T08:35:02;18.40;8.80
32895;DHT22;19251;49.484;8.260;2023-05-24T08:45:25;18.60;8.30
32895;DHT22;19251;49.484;8.260;2023-05-24T08:50:30;18.60;8.30
32895;DHT22;19251;49.484;8.260;2023-05-24T08:55:32;18.70;7.90
32895;DHT22;19251;49.484;8.260;2023-05-24T09:05:39;18.90;7.30
32895;DHT22;19251;49.484;8.260;2023-05-24T09:10:43;18.90;7.30
32895;DHT22;19251;49.484;8.260;2023-05-24T09:15:57;19.00;7.40
32895;DHT22;19251;49.484;8.260;2023-05-24T09:21:00;19.20;7.50
32895;DHT22;19251;49.484;8.260;2023-05-24T09:26:08;19.30;7.00
32895;DHT22;19251;49.484;8.260;2023-05-24T09:31:11;19.40;7.10
32895;DHT22;19251;49.484;8.260;2023-05-24T09:41:17;19.70;6.20
32895;DHT22;19251;49.484;8.260;2023-05-24T09:46:21;19.90;6.30
32895;DHT22;19251;49.484;8.260;2023-05-24T09:51:24;20.00;6.30
32895;DHT22;19251;49.484;8.260;2023-05-24T09:56:26;20.30;6.20
32895;DHT22;19251;49.484;8.260;2023-05-24T10:01:28;20.50;5.80
32895;DHT22;19251;49.484;8.260;2023-05-24T10:06:31;20.70;5.80
32895;DHT22;19251;49.484;8.260;2023-05-24T10:11:36;20.70;5.30
32895;DHT22;19251;49.484;8.260;2023-05-24T10:16:38;20.70;5.20
32895;DHT22;19251;49.484;8.260;2023-05-24T10:21:40;20.70;5.00
32895;DHT22;19251;49.484;8.260;2023-05-24T10:31:48;20.80;4.30
32895;DHT22;19251;49.484;8.260;2023-05-24T10:36:50;20.80;4.50
32895;DHT22;19251;49.484;8.260;2023-05-24T10:52:01;21.20;4.70
32895;DHT22;19251;49.484;8.260;2023-05-24T10:57:05;21.30;4.80
32895;DHT22;19251;49.484;8.260;2023-05-24T11:02:08;21.50;4.80
32895;DHT22;19251;49.484;8.260;2023-05-24T11:07:15;21.70;4.40
32895;DHT22;19251;49.484;8.260;2023-05-24T11:12:18;21.90;5.10
32895;DHT22;19251;49.484;8.260;2023-05-24T11:17:22;22.30;5.10
32895;DHT22;19251;49.484;8.260;2023-05-24T11:22:24;22.60;5.20
32895;DHT22;19251;49.484;8.260;2023-05-24T11:27:28;22.80;4.50
32895;DHT22;19251;49.484;8.260;2023-05-24T11:32:31;23.00;4.10
32895;DHT22;19251;49.484;8.260;2023-05-24T11:37:33;23.20;4.10
32895;DHT22;19251;49.484;8.260;2023-05-24T11:42:47;23.40;3.30
32895;DHT22;19251;49.484;8.260;2023-05-24T11:52:53;23.70;2.80
32895;DHT22;19251;49.484;8.260;2023-05-24T11:57:56;23.60;2.80
32895;DHT22;19251;49.484;8.260;2023-05-24T12:02:59;23.70;3.00
32895;DHT22;19251;49.484;8.260;2023-05-24T12:08:07;23.90;2.70
32895;DHT22;19251;49.484;8.260;2023-05-24T12:13:24;24.10;2.60
32895;DHT22;19251;49.484;8.260;2023-05-24T12:18:26;24.50;2.80
32895;DHT22;19251;49.484;8.260;2023-05-24T12:23:29;24.90;1.80
32895;DHT22;19251;49.484;8.260;2023-05-24T12:28:33;25.20;1.00
32895;DHT22;19251;49.484;8.260;2023-05-24T12:33:37;25.30;1.00
32895;DHT22;19251;49.484;8.260;2023-05-24T12:38:40;25.30;1.00
32895;DHT22;19251;49.484;8.260;2023-05-24T12:43:42;25.50;1.00
32895;DHT22;19251;49.484;8.260;2023-05-24T12:48:45;25.60;1.00
32895;DHT22;19251;49.484;8.260;2023-05-24T12:53:47;25.70;1.00
32895;DHT22;19251;49.484;8.260;2023-05-24T12:58:49;25.90;1.00
32895;DHT22;19251;49.484;8.260;2023-05-24T13:08:54;26.10;1.00
32895;DHT22;19251;49.484;8.260;2023-05-24T13:13:56;26.20;1.00
32895;DHT22;19251;49.484;8.260;2023-05-24T13:19:00;26.40;1.00
32895;DHT22;19251;49.484;8.260;2023-05-24T13:24:02;26.60;1.00
32895;DHT22;19251;49.484;8.260;2023-05-24T13:29:06;26.70;1.00
32895;DHT22;19251;49.484;8.260;2023-05-24T13:34:28;26.70;1.00
32895;DHT22;19251;49.484;8.260;2023-05-24T13:39:30;27.00;1.00
32895;DHT22;19251;49.484;8.260;2023-05-24T13:44:32;27.20;1.00
32895;DHT22;19251;49.484;8.260;2023-05-24T13:49:34;27.40;1.00
32895;DHT22;19251;49.484;8.260;2023-05-24T13:54:37;27.60;1.00
32895;DHT22;19251;49.484;8.260;2023-05-24T13:59:39;27.70;1.00
32895;DHT22;19251;49.484;8.260;2023-05-24T14:04:41;27.70;1.00
32895;DHT22;19251;49.484;8.260;2023-05-24T14:09:43;27.70;1.00
32895;DHT22;19251;49.484;8.260;2023-05-24T14:14:45;28.10;1.00
32895;DHT22;19251;49.484;8.260;2023-05-24T14:19:50;28.60;1.00
32895;DHT22;19251;49.484;8.260;2023-05-24T14:24:52;29.00;1.00
32895;DHT22;19251;49.484;8.260;2023-05-24T14:29:54;29.40;1.00
32895;DHT22;19251;49.484;8.260;2023-05-24T14:39:59;30.40;1.00
32895;DHT22;19251;49.484;8.260;2023-05-24T14:45:01;30.10;1.00
32895;DHT22;19251;49.484;8.260;2023-05-24T14:50:04;29.40;1.00
32895;DHT22;19251;49.484;8.260;2023-05-24T14:55:07;28.90;1.00
32895;DHT22;19251;49.484;8.260;2023-05-24T15:00:09;28.60;1.00
32895;DHT22;19251;49.484;8.260;2023-05-24T15:05:12;28.10;1.00
32895;DHT22;19251;49.484;8.260;2023-05-24T15:15:16;27.30;1.00
32895;DHT22;19251;49.484;8.260;2023-05-24T15:20:20;27.40;1.00
32895;DHT22;19251;49.484;8.260;2023-05-24T15:25:22;27.90;1.00
32895;DHT22;19251;49.484;8.260;2023-05-24T15:30:24;28.90;1.00
32895;DHT22;19251;49.484;8.260;2023-05-24T15:35:26;29.50;1.00
32895;DHT22;19251;49.484;8.260;2023-05-24T15:40:28;30.00;1.00
32895;DHT22;19251;49.484;8.260;2023-05-24T15:50:33;30.80;1.00
32895;DHT22;19251;49.484;8.260;2023-05-24T15:55:56;30.50;1.00
32895;DHT22;19251;49.484;8.260;2023-05-24T16:00:58;29.80;1.00
32895;DHT22;19251;49.484;8.260;2023-05-24T16:06:00;29.00;1.00
32895;DHT22;19251;49.484;8.260;2023-05-24T16:11:02;28.40;1.00
32895;DHT22;19251;49.484;8.260;2023-05-24T16:16:08;27.90;1.00
32895;DHT22;19251;49.484;8.260;2023-05-24T16:21:11;27.60;1.00
32895;DHT22;19251;49.484;8.260;2023-05-24T16:26:13;27.50;1.00
32895;DHT22;19251;49.484;8.260;2023-05-24T16:31:15;27.40;1.00
32895;DHT22;19251;49.484;8.260;2023-05-24T16:36:17;27.30;1.00
32895;DHT22;19251;49.484;8.260;2023-05-24T16:41:19;27.00;1.00
32895;DHT22;19251;49.484;8.260;2023-05-24T16:46:21;26.70;1.00
32895;DHT22;19251;49.484;8.260;2023-05-24T16:51:25;26.40;1.00
32895;DHT22;19251;49.484;8.260;2023-05-24T16:56:27;26.00;1.00
32895;DHT22;19251;49.484;8.260;2023-05-24T17:01:29;25.50;1.00
32895;DHT22;19251;49.484;8.260;2023-05-24T17:06:31;25.00;1.00
32895;DHT22;19251;49.484;8.260;2023-05-24T17:11:33;24.60;1.00
32895;DHT22;19251;49.484;8.260;2023-05-24T17:16:35;24.30;1.00
32895;DHT22;19251;49.484;8.260;2023-05-24T17:21:38;23.90;1.00
32895;DHT22;19251;49.484;8.260;2023-05-24T17:26:40;23.70;1.00
32895;DHT22;19251;49.484;8.260;2023-05-24T17:36:45;23.10;1.00
32895;DHT22;19251;49.484;8.260;2023-05-24T17:41:48;22.90;1.00
32895;DHT22;19251;49.484;8.260;2023-05-24T17:46:50;22.70;1.00
32895;DHT22;19251;49.484;8.260;2023-05-24T17:51:52;22.40;1.00
32895;DHT22;19251;49.484;8.260;2023-05-24T17:56:54;22.20;1.00
32895;DHT22;19251;49.484;8.260;2023-05-24T18:01:57;22.10;1.00
32895;DHT22;19251;49.484;8.260;2023-05-24T18:06:59;21.90;1.00
32895;DHT22;19251;49.484;8.260;2023-05-24T18:12:02;21.70;1.00
32895;DHT22;19251;49.484;8.260;2023-05-24T18:17:04;21.60;1.00
32895;DHT22;19251;49.484;8.260;2023-05-24T18:22:06;21.50;1.00
32895;DHT22;19251;49.484;8.260;2023-05-24T18:27:08;21.30;1.00
32895;DHT22;19251;49.484;8.260;2023-05-24T18:32:10;21.20;1.00
32895;DHT22;19251;49.484;8.260;2023-05-24T18:37:12;20.90;1.00
32895;DHT22;19251;49.484;8.260;2023-05-24T18:42:15;20.70;1.00
32895;DHT22;19251;49.484;8.260;2023-05-24T18:52:20;20.50;1.00
32895;DHT22;19251;49.484;8.260;2023-05-24T19:02:24;20.30;1.00
32895;DHT22;19251;49.484;8.260;2023-05-24T19:07:27;20.10;1.00
32895;DHT22;19251;49.484;8.260;2023-05-24T19:12:29;20.00;1.00
32895;DHT22;19251;49.484;8.260;2023-05-24T19:17:32;19.90;1.00
32895;DHT22;19251;49.484;8.260;2023-05-24T19:27:36;19.70;1.40
32895;DHT22;19251;49.484;8.260;2023-05-24T19:32:48;19.50;1.70
32895;DHT22;19251;49.484;8.260;2023-05-24T19:37:51;19.40;1.90
32895;DHT22;19251;49.484;8.260;2023-05-24T19:42:54;19.30;2.10
32895;DHT22;19251;49.484;8.260;2023-05-24T19:47:56;19.30;2.70
32895;DHT22;19251;49.484;8.260;2023-05-24T19:52:58;19.20;3.00
32895;DHT22;19251;49.484;8.260;2023-05-24T19:58:01;19.10;3.30
32895;DHT22;19251;49.484;8.260;2023-05-24T20:03:03;18.90;3.70
32895;DHT22;19251;49.484;8.260;2023-05-24T20:08:05;18.80;4.20
32895;DHT22;19251;49.484;8.260;2023-05-24T20:13:07;18.70;4.70
32895;DHT22;19251;49.484;8.260;2023-05-24T20:18:10;18.60;4.70
32895;DHT22;19251;49.484;8.260;2023-05-24T20:28:14;18.30;5.10
32895;DHT22;19251;49.484;8.260;2023-05-24T20:33:31;18.20;5.50
32895;DHT22;19251;49.484;8.260;2023-05-24T20:38:38;18.00;5.80
32895;DHT22;19251;49.484;8.260;2023-05-24T20:43:40;18.00;6.60
32895;DHT22;19251;49.484;8.260;2023-05-24T20:48:42;17.80;6.50
32895;DHT22;19251;49.484;8.260;2023-05-24T20:53:45;17.70;7.20
32895;DHT22;19251;49.484;8.260;2023-05-24T21:14:01;17.40;9.00
32895;DHT22;19251;49.484;8.260;2023-05-24T21:19:03;17.30;9.20
32895;DHT22;19251;49.484;8.260;2023-05-24T21:24:06;17.30;9.40
32895;DHT22;19251;49.484;8.260;2023-05-24T21:29:09;17.20;9.70
32895;DHT22;19251;49.484;8.260;2023-05-24T21:34:11;17.10;9.90
32895;DHT22;19251;49.484;8.260;2023-05-24T21:39:13;17.10;10.00
32895;DHT22;19251;49.484;8.260;2023-05-24T21:44:15;17.00;10.00
32895;DHT22;19251;49.484;8.260;2023-05-24T21:49:17;17.00;10.00
32895;DHT22;19251;49.484;8.260;2023-05-24T21:59:23;17.00;10.10
32895;DHT22;19251;49.484;8.260;2023-05-24T22:04:25;17.00;10.60
32895;DHT22;19251;49.484;8.260;2023-05-24T22:09:27;16.90;10.40
32895;DHT22;19251;49.484;8.260;2023-05-24T22:14:30;16.80;10.70
32895;DHT22;19251;49.484;8.260;2023-05-24T22:19:32;16.70;11.00
32895;DHT22;19251;49.484;8.260;2023-05-24T22:24:38;16.50;10.90
32895;DHT22;19251;49.484;8.260;2023-05-24T22:29:41;16.30;11.40
32895;DHT22;19251;49.484;8.260;2023-05-24T22:34:43;16.10;11.40
32895;DHT22;19251;49.484;8.260;2023-05-24T22:39:46;16.00;11.50
32895;DHT22;19251;49.484;8.260;2023-05-24T22:44:48;15.80;11.70
32895;DHT22;19251;49.484;8.260;2023-05-24T22:49:51;15.70;11.90
32895;DHT22;19251;49.484;8.260;2023-05-24T22:54:54;15.50;11.80
32895;DHT22;19251;49.484;8.260;2023-05-24T22:59:56;15.40;12.30
32895;DHT22;19251;49.484;8.260;2023-05-24T23:04:59;15.20;12.20
32895;DHT22;19251;49.484;8.260;2023-05-24T23:10:01;15.10;12.60
32895;DHT22;19251;49.484;8.260;2023-05-24T23:15:04;14.90;12.50
32895;DHT22;19251;49.484;8.260;2023-05-24T23:20:07;14.80;12.80
32895;DHT22;19251;49.484;8.260;2023-05-24T23:25:11;14.70;13.10
32895;DHT22;19251;49.484;8.260;2023-05-24T23:30:13;14.60;13.30
32895;DHT22;19251;49.484;8.260;2023-05-24T23:35:15;14.50;13.50
32895;DHT22;19251;49.484;8.260;2023-05-24T23:40:17;14.30;13.50
32895;DHT22;19251;49.484;8.260;2023-05-24T23:50:22;14.10;13.90
32895;DHT22;19251;49.484;8.260;2023-05-24T23:55:24;13.90;14.10
